createdAt,value
2023-02-22T00:02:14.368Z,100232.77
2023-02-22T00:04:43.005Z,100230.20
2023-02-22T00:07:12.121Z,100226.54
2023-02-22T00:09:41.119Z,100229.91
2023-02-22T00:12:10.616Z,100231.98
2023-02-22T00:14:40.651Z,100237.53
2023-02-22T00:17:09.814Z,100241.98
2023-02-22T00:19:39.114Z,100246.95
2023-02-22T00:22:07.702Z,100250.86
2023-02-22T00:24:37.131Z,100249.71
2023-02-22T00:27:06.002Z,100256.14
2023-02-22T00:29:36.514Z,100259.52
2023-02-22T00:32:05.637Z,100260.61
2023-02-22T00:34:34.298Z,100257.76
2023-02-22T00:37:04.615Z,100255.88
2023-02-22T00:39:33.426Z,100255.89
2023-02-22T00:42:04.420Z,100253.30
2023-02-22T00:44:33.757Z,100254.64
2023-02-22T00:47:05.156Z,100261.20
2023-02-22T00:49:34.303Z,100264.25
2023-02-22T00:52:02.977Z,100265.05
2023-02-22T00:54:32.578Z,100265.34
2023-02-22T00:57:01.715Z,100267.23
2023-02-22T00:59:31.598Z,100267.33
2023-02-22T01:02:01.094Z,100264.90
2023-02-22T01:04:30.214Z,100262.36
2023-02-22T01:07:01.021Z,100262.88
2023-02-22T01:09:29.717Z,100264.48
2023-02-22T01:11:58.726Z,100267.30
2023-02-22T01:14:29.049Z,100267.98
2023-02-22T01:16:58.192Z,100268.16
2023-02-22T01:19:26.734Z,100261.91
2023-02-22T01:21:55.412Z,100262.61
2023-02-22T01:24:24.074Z,100262.35
2023-02-22T01:26:53.923Z,100264.23
2023-02-22T01:29:23.106Z,100260.84
2023-02-22T01:31:55.040Z,100264.46
2023-02-22T01:34:25.286Z,100266.77
2023-02-22T01:36:54.172Z,100266.19
2023-02-22T01:39:23.053Z,100265.45
2023-02-22T01:41:56.264Z,100265.42
2023-02-22T01:44:32.256Z,100265.16
2023-02-22T01:47:05.018Z,100268.15
2023-02-22T01:49:45.844Z,100269.31
2023-02-22T01:52:19.970Z,100267.06
2023-02-22T01:54:53.461Z,100264.10
2023-02-22T01:57:26.215Z,100264.91
2023-02-22T01:59:58.912Z,100262.48
2023-02-22T02:02:28.320Z,100259.16
2023-02-22T02:04:58.146Z,100260.29
2023-02-22T02:07:30.212Z,100256.60
2023-02-22T02:10:01.312Z,100257.23
2023-02-22T02:12:33.449Z,100258.13
2023-02-22T02:15:32.312Z,100262.95
2023-02-22T02:18:03.764Z,100256.30
2023-02-22T02:20:44.533Z,100260.52
2023-02-22T02:23:38.714Z,100258.54
2023-02-22T02:26:41.192Z,100258.85
2023-02-22T02:29:19.177Z,100258.58
2023-02-22T02:32:23.912Z,100257.69
2023-02-22T02:35:07.571Z,100255.92
2023-02-22T02:38:05.733Z,100253.09
2023-02-22T02:40:55.811Z,100252.08
2023-02-22T02:43:42.958Z,100254.41
2023-02-22T02:46:27.232Z,100254.71
2023-02-22T02:49:10.910Z,100256.89
2023-02-22T02:51:42.661Z,100256.20
2023-02-22T02:54:12.711Z,100253.86
2023-02-22T02:56:43.176Z,100254.52
2023-02-22T02:59:34.545Z,100254.73
2023-02-22T03:02:40.715Z,100252.30
2023-02-22T03:05:24.351Z,100253.16
2023-02-22T03:08:17.185Z,100253.71
2023-02-22T03:10:59.712Z,100255.32
2023-02-22T03:13:53.215Z,100255.44
2023-02-22T03:16:48.136Z,100258.98
2023-02-22T03:19:22.793Z,100258.30
2023-02-22T03:22:00.855Z,100259.01
2023-02-22T03:24:29.913Z,100256.80
2023-02-22T03:27:24.180Z,100257.38
2023-02-22T03:29:57.995Z,100262.98
2023-02-22T03:32:31.311Z,100263.10
2023-02-22T03:35:08.782Z,100260.17
2023-02-22T03:37:44.621Z,100258.83
2023-02-22T03:40:19.699Z,100259.41
2023-02-22T03:42:52.336Z,100259.92
2023-02-22T03:45:24.321Z,100259.94
2023-02-22T03:48:01.420Z,100259.56
2023-02-22T03:50:38.053Z,100257.97
2023-02-22T03:53:08.176Z,100262.11
2023-02-22T03:55:38.300Z,100267.25
2023-02-22T03:58:11.521Z,100265.05
2023-02-22T04:00:45.021Z,100263.82
2023-02-22T04:03:13.880Z,100266.62
2023-02-22T04:05:42.656Z,100271.35
2023-02-22T04:08:11.677Z,100269.63
2023-02-22T04:10:40.454Z,100268.51
2023-02-22T04:13:11.194Z,100269.88
2023-02-22T04:15:43.495Z,100269.13
2023-02-22T04:18:13.173Z,100276.80
2023-02-22T04:20:42.038Z,100274.04
2023-02-22T04:23:21.784Z,100268.16
2023-02-22T04:25:50.855Z,100268.55
2023-02-22T04:28:20.396Z,100267.16
2023-02-22T04:30:54.653Z,100269.02
2023-02-22T04:33:23.719Z,100268.95
2023-02-22T04:35:52.302Z,100271.75
2023-02-22T04:38:20.942Z,100268.57
2023-02-22T04:40:49.886Z,100268.30
2023-02-22T04:43:20.071Z,100269.57
2023-02-22T04:45:50.108Z,100266.83
2023-02-22T04:48:18.885Z,100265.92
2023-02-22T04:50:48.301Z,100265.55
2023-02-22T04:53:17.882Z,100259.39
2023-02-22T04:55:47.519Z,100262.89
2023-02-22T04:58:16.366Z,100259.67
2023-02-22T05:00:45.071Z,100254.73
2023-02-22T05:03:13.974Z,100251.23
2023-02-22T05:05:43.186Z,100250.89
2023-02-22T05:08:11.957Z,100248.41
2023-02-22T05:10:42.394Z,100249.38
2023-02-22T05:13:12.184Z,100250.12
2023-02-22T05:15:41.239Z,100247.73
2023-02-22T05:18:10.173Z,100249.09
2023-02-22T05:20:38.974Z,100252.55
2023-02-22T05:23:07.732Z,100249.88
2023-02-22T05:25:36.588Z,100251.70
2023-02-22T05:28:11.969Z,100251.13
2023-02-22T05:30:41.352Z,100248.11
2023-02-22T05:33:10.571Z,100246.23
2023-02-22T05:35:39.278Z,100247.23
2023-02-22T05:38:09.194Z,100248.98
2023-02-22T05:40:37.986Z,100252.71
2023-02-22T05:43:07.799Z,100252.70
2023-02-22T05:45:36.873Z,100251.49
2023-02-22T05:48:05.995Z,100253.29
2023-02-22T05:50:35.076Z,100257.70
2023-02-22T05:53:03.858Z,100262.27
2023-02-22T05:55:33.342Z,100264.69
2023-02-22T05:58:02.134Z,100266.17
2023-02-22T06:00:31.545Z,100268.25
2023-02-22T06:03:03.189Z,100270.19
2023-02-22T06:05:31.972Z,100269.41
2023-02-22T06:08:00.772Z,100274.34
2023-02-22T06:10:30.423Z,100273.03
2023-02-22T06:12:59.880Z,100277.40
2023-02-22T06:15:29.296Z,100279.66
2023-02-22T06:17:59.509Z,100280.71
2023-02-22T06:20:31.390Z,100278.96
2023-02-22T06:23:00.257Z,100282.33
2023-02-22T06:25:33.251Z,100284.95
2023-02-22T06:28:02.855Z,100287.69
2023-02-22T06:30:34.316Z,100287.61
2023-02-22T06:33:03.330Z,100289.48
2023-02-22T06:35:32.577Z,100288.48
2023-02-22T06:38:03.109Z,100298.86
2023-02-22T06:40:31.835Z,100297.59
2023-02-22T06:43:00.748Z,100297.98
2023-02-22T06:45:29.939Z,100304.19
2023-02-22T06:47:58.986Z,100306.98
2023-02-22T06:50:29.768Z,100307.01
2023-02-22T06:52:59.133Z,100311.83
2023-02-22T06:55:33.340Z,100314.64
2023-02-22T06:58:03.485Z,100317.59
2023-02-22T07:00:33.188Z,100319.31
2023-02-22T07:03:03.711Z,100321.80
2023-02-22T07:05:33.507Z,100326.13
2023-02-22T07:08:05.740Z,100322.74
2023-02-22T07:10:36.443Z,100327.10
2023-02-22T07:13:07.291Z,100329.52
2023-02-22T07:15:36.455Z,100329.11
2023-02-22T07:18:06.473Z,100329.57
2023-02-22T07:20:35.530Z,100332.70
2023-02-22T07:23:08.241Z,100333.86
2023-02-22T07:25:38.254Z,100334.59
2023-02-22T07:28:07.536Z,100338.95
2023-02-22T07:30:36.484Z,100337.92
2023-02-22T07:33:08.320Z,100336.56
2023-02-22T07:35:39.582Z,100338.32
2023-02-22T07:38:10.501Z,100337.04
2023-02-22T07:40:39.819Z,100339.53
2023-02-22T07:43:18.132Z,100334.71
2023-02-22T07:45:48.842Z,100335.64
2023-02-22T07:48:19.045Z,100335.92
2023-02-22T07:50:48.137Z,100338.55
2023-02-22T07:53:30.690Z,100339.27
2023-02-22T07:56:01.054Z,100340.92
2023-02-22T07:58:31.226Z,100338.56
2023-02-22T08:01:03.521Z,100338.61
2023-02-22T08:03:38.321Z,100342.67
2023-02-22T08:06:08.426Z,100343.27
2023-02-22T08:08:37.330Z,100343.95
2023-02-22T08:11:06.616Z,100342.05
2023-02-22T08:13:37.698Z,100343.19
2023-02-22T08:16:06.345Z,100342.16
2023-02-22T08:18:35.139Z,100345.73
2023-02-22T08:21:04.956Z,100343.87
2023-02-22T08:23:38.360Z,100342.01
2023-02-22T08:26:09.736Z,100340.15
2023-02-22T08:28:38.483Z,100340.28
2023-02-22T08:31:09.513Z,100337.84
2023-02-22T08:33:38.974Z,100337.84
2023-02-22T08:36:10.905Z,100342.98
2023-02-22T08:38:41.332Z,100338.17
2023-02-22T08:41:10.050Z,100332.63
2023-02-22T08:43:38.985Z,100332.13
2023-02-22T08:46:08.840Z,100328.92
2023-02-22T08:48:37.692Z,100330.52
2023-02-22T08:51:07.073Z,100329.49
2023-02-22T08:53:36.790Z,100330.44
2023-02-22T08:56:06.282Z,100328.05
2023-02-22T08:58:35.683Z,100331.34
2023-02-22T09:01:04.480Z,100328.70
2023-02-22T09:03:33.760Z,100328.60
2023-02-22T09:06:05.085Z,100329.06
2023-02-22T09:08:33.959Z,100327.31
2023-02-22T09:11:02.556Z,100330.63
2023-02-22T09:13:34.465Z,100329.45
2023-02-22T09:16:03.493Z,100328.88
2023-02-22T09:18:43.484Z,100331.34
2023-02-22T09:21:16.185Z,100329.97
2023-02-22T09:23:48.016Z,100329.97
2023-02-22T09:26:16.857Z,100331.27
2023-02-22T09:28:45.701Z,100331.17
2023-02-22T09:31:15.011Z,100328.88
2023-02-22T09:33:45.870Z,100331.31
2023-02-22T09:36:16.536Z,100329.39
2023-02-22T09:38:46.703Z,100327.84
2023-02-22T09:41:35.175Z,100328.65
2023-02-22T09:44:17.165Z,100324.55
2023-02-22T09:46:46.676Z,100322.14
2023-02-22T09:49:34.537Z,100322.62
2023-02-22T09:52:21.120Z,100326.85
2023-02-22T09:55:07.407Z,100330.21
2023-02-22T09:57:40.920Z,100330.20
2023-02-22T10:00:18.751Z,100329.57
2023-02-22T10:03:21.316Z,100326.79
2023-02-22T10:06:13.150Z,100325.33
2023-02-22T10:08:42.614Z,100322.44
2023-02-22T10:11:28.392Z,100326.33
2023-02-22T10:14:44.294Z,100321.41
2023-02-22T10:17:31.508Z,100319.80
2023-02-22T10:20:07.256Z,100316.73
2023-02-22T10:22:43.780Z,100315.54
2023-02-22T10:25:19.626Z,100314.58
2023-02-22T10:28:00.610Z,100314.07
2023-02-22T10:30:42.307Z,100317.02
2023-02-22T10:33:27.225Z,100321.23
2023-02-22T10:35:56.529Z,100317.50
2023-02-22T10:38:28.065Z,100315.94
2023-02-22T10:40:58.183Z,100316.26
2023-02-22T10:43:27.191Z,100313.30
2023-02-22T10:45:58.862Z,100315.73
2023-02-22T10:48:30.728Z,100311.51
2023-02-22T10:51:03.060Z,100310.39
2023-02-22T10:53:36.459Z,100313.48
2023-02-22T10:56:14.263Z,100311.16
2023-02-22T10:59:06.313Z,100306.47
2023-02-22T11:01:41.108Z,100304.73
2023-02-22T11:04:16.539Z,100299.06
2023-02-22T11:06:48.916Z,100298.58
2023-02-22T11:09:22.970Z,100302.62
2023-02-22T11:12:10.244Z,100293.56
2023-02-22T11:14:39.550Z,100293.55
2023-02-22T11:17:09.618Z,100291.40
2023-02-22T11:19:39.872Z,100293.17
2023-02-22T11:22:10.244Z,100293.67
2023-02-22T11:27:29.800Z,100290.70
2023-02-22T11:30:22.218Z,100289.90
2023-02-22T11:33:04.116Z,100288.75
2023-02-22T11:35:37.494Z,100284.28
2023-02-22T11:38:17.552Z,100286.77
2023-02-22T11:40:46.523Z,100284.02
2023-02-22T11:43:21.143Z,100281.91
2023-02-22T11:46:12.486Z,100282.91
2023-02-22T11:49:06.472Z,100284.84
2023-02-22T11:51:38.509Z,100283.54
2023-02-22T11:54:33.728Z,100281.23
2023-02-22T11:57:36.878Z,100276.79
2023-02-22T12:00:25.096Z,100280.98
2023-02-22T12:03:07.375Z,100274.36
2023-02-22T12:05:48.198Z,100279.96
2023-02-22T12:08:35.845Z,100276.17
2023-02-22T12:11:11.188Z,100269.80
2023-02-22T12:13:46.776Z,100273.73
2023-02-22T12:16:23.214Z,100276.95
2023-02-22T12:19:10.720Z,100274.05
2023-02-22T12:21:41.642Z,100277.10
2023-02-22T12:24:16.846Z,100275.77
2023-02-22T12:27:00.485Z,100276.27
2023-02-22T12:29:37.914Z,100273.32
2023-02-22T12:32:46.289Z,100272.84
2023-02-22T12:35:25.767Z,100275.94
2023-02-22T12:38:02.124Z,100276.90
2023-02-22T12:40:54.945Z,100275.47
2023-02-22T12:43:56.040Z,100274.42
2023-02-22T12:46:43.280Z,100273.86
2023-02-22T12:49:20.651Z,100272.35
2023-02-22T12:52:20.846Z,100269.60
2023-02-22T12:55:23.256Z,100269.97
2023-02-22T12:57:57.672Z,100267.65
2023-02-22T13:00:29.122Z,100268.93
2023-02-22T13:03:34.269Z,100263.04
2023-02-22T13:06:11.845Z,100261.33
2023-02-22T13:08:55.991Z,100261.93
2023-02-22T13:11:49.613Z,100257.91
2023-02-22T13:14:47.055Z,100255.77
2023-02-22T13:17:28.677Z,100253.40
2023-02-22T13:20:11.663Z,100249.28
2023-02-22T13:22:41.319Z,100251.02
2023-02-22T13:25:18.191Z,100251.66
2023-02-22T13:27:52.820Z,100248.37
2023-02-22T13:30:29.508Z,100254.52
2023-02-22T13:33:16.951Z,100254.08
2023-02-22T13:36:19.399Z,100254.48
2023-02-22T13:39:19.870Z,100256.64
2023-02-22T13:41:56.455Z,100255.39
2023-02-22T13:44:53.058Z,100253.77
2023-02-22T13:47:41.503Z,100253.91
2023-02-22T13:50:54.639Z,100252.91
2023-02-22T13:53:29.687Z,100255.16
2023-02-22T13:56:02.004Z,100255.44
2023-02-22T13:58:31.049Z,100255.50
2023-02-22T14:01:01.087Z,100252.66
2023-02-22T14:03:41.532Z,100255.66
2023-02-22T14:06:33.288Z,100257.05
2023-02-22T14:09:21.381Z,100253.11
2023-02-22T14:11:54.874Z,100247.63
2023-02-22T14:14:25.147Z,100246.85
2023-02-22T14:17:26.134Z,100247.54
2023-02-22T14:20:04.648Z,100242.40
2023-02-22T14:22:33.360Z,100236.70
2023-02-22T14:25:02.080Z,100238.04
2023-02-22T14:27:41.017Z,100239.30
2023-02-22T14:30:26.413Z,100238.86
2023-02-22T14:32:57.020Z,100242.70
2023-02-22T14:35:33.334Z,100243.75
2023-02-22T14:38:18.667Z,100246.73
2023-02-22T14:40:49.153Z,100241.35
2023-02-22T14:43:20.388Z,100244.84
2023-02-22T14:46:02.439Z,100245.86
2023-02-22T14:48:40.242Z,100240.98
2023-02-22T14:51:35.689Z,100243.30
2023-02-22T14:54:35.665Z,100236.94
2023-02-22T14:57:15.256Z,100237.96
2023-02-22T15:00:23.044Z,100234.77
2023-02-22T15:02:57.608Z,100237.27
2023-02-22T15:05:30.670Z,100242.70
2023-02-22T15:08:02.593Z,100237.77
2023-02-22T15:10:31.731Z,100241.52
2023-02-22T15:13:09.985Z,100241.36
2023-02-22T15:15:49.205Z,100245.06
2023-02-22T15:18:22.462Z,100238.02
2023-02-22T15:20:58.630Z,100236.91
2023-02-22T15:23:30.986Z,100236.86
2023-02-22T15:26:01.022Z,100236.45
2023-02-22T15:28:31.343Z,100233.03
2023-02-22T15:31:23.946Z,100226.68
2023-02-22T15:33:54.002Z,100230.70
2023-02-22T15:36:27.707Z,100231.28
2023-02-22T15:38:56.609Z,100232.27
2023-02-22T15:41:31.985Z,100229.75
2023-02-22T15:44:22.659Z,100232.38
2023-02-22T15:46:55.720Z,100229.91
2023-02-22T15:49:26.553Z,100232.52
2023-02-22T15:52:20.080Z,100231.41
2023-02-22T15:54:51.476Z,100232.15
2023-02-22T15:57:25.601Z,100231.62
2023-02-22T15:59:57.275Z,100234.07
2023-02-22T16:02:39.633Z,100234.80
2023-02-22T16:05:15.566Z,100234.85
2023-02-22T16:07:50.510Z,100239.02
2023-02-22T16:10:22.190Z,100236.50
2023-02-22T16:13:05.933Z,100237.34
2023-02-22T16:15:39.886Z,100236.38
2023-02-22T16:18:25.905Z,100237.16
2023-02-22T16:21:16.818Z,100237.03
2023-02-22T16:23:57.394Z,100240.06
2023-02-22T16:26:33.317Z,100244.16
2023-02-22T16:29:08.798Z,100245.05
2023-02-22T16:31:39.508Z,100242.15
2023-02-22T16:34:12.488Z,100245.73
2023-02-22T16:36:47.372Z,100246.17
2023-02-22T16:39:45.641Z,100250.30
2023-02-22T16:42:20.464Z,100256.29
2023-02-22T16:44:49.862Z,100256.58
2023-02-22T16:47:20.064Z,100261.58
2023-02-22T16:49:53.133Z,100266.73
2023-02-22T16:52:22.768Z,100267.39
2023-02-22T16:54:52.992Z,100265.20
2023-02-22T16:57:24.737Z,100271.19
2023-02-22T16:59:56.614Z,100268.83
2023-02-22T17:02:28.800Z,100272.59
2023-02-22T17:04:58.482Z,100273.22
2023-02-22T17:07:32.110Z,100274.09
2023-02-22T17:10:01.294Z,100275.92
2023-02-22T17:12:34.001Z,100274.64
2023-02-22T17:15:04.340Z,100282.55
2023-02-22T17:17:33.585Z,100281.77
2023-02-22T17:20:07.604Z,100284.50
2023-02-22T17:22:36.648Z,100286.11
2023-02-22T17:25:39.104Z,100287.09
2023-02-22T17:28:10.886Z,100287.66
2023-02-22T17:30:43.502Z,100282.92
2023-02-22T17:33:17.265Z,100286.82
2023-02-22T17:35:50.534Z,100288.46
2023-02-22T17:38:23.601Z,100286.45
2023-02-22T17:40:55.071Z,100286.23
2023-02-22T17:43:25.969Z,100285.70
2023-02-22T17:46:05.072Z,100288.70
2023-02-22T17:48:35.930Z,100286.00
2023-02-22T17:51:08.143Z,100285.86
2023-02-22T17:53:46.228Z,100287.54
2023-02-22T17:56:20.950Z,100290.88
2023-02-22T17:58:54.049Z,100289.95
2023-02-22T18:01:27.657Z,100289.77
2023-02-22T18:04:00.802Z,100284.59
2023-02-22T18:06:34.390Z,100283.34
2023-02-22T18:09:12.714Z,100282.84
2023-02-22T18:11:46.144Z,100281.96
2023-02-22T18:14:17.035Z,100278.69
2023-02-22T18:16:48.949Z,100281.10
2023-02-22T18:19:23.216Z,100281.05
2023-02-22T18:21:54.359Z,100286.04
2023-02-22T18:24:35.301Z,100282.44
2023-02-22T18:27:11.604Z,100282.59
2023-02-22T18:29:43.200Z,100283.73
2023-02-22T18:32:14.689Z,100284.35
2023-02-22T18:34:46.690Z,100280.96
2023-02-22T18:37:22.609Z,100280.84
2023-02-22T18:39:56.825Z,100279.66
2023-02-22T18:42:29.135Z,100277.87
2023-02-22T18:45:04.225Z,100277.38
2023-02-22T18:47:46.370Z,100281.84
2023-02-22T18:50:21.080Z,100279.64
2023-02-22T18:52:51.973Z,100280.52
2023-02-22T18:55:31.295Z,100280.77
2023-02-22T18:58:03.040Z,100280.02
2023-02-22T19:00:36.536Z,100278.39
2023-02-22T19:03:13.059Z,100277.79
2023-02-22T19:05:46.454Z,100280.17
2023-02-22T19:08:18.670Z,100277.52
2023-02-22T19:10:52.665Z,100277.31
2023-02-22T19:13:23.605Z,100278.84
2023-02-22T19:15:53.753Z,100274.60
2023-02-22T19:18:28.114Z,100278.39
2023-02-22T19:21:05.074Z,100277.71
2023-02-22T19:23:38.820Z,100274.40
2023-02-22T19:26:11.642Z,100270.02
2023-02-22T19:28:43.576Z,100271.55
2023-02-22T19:31:23.747Z,100269.34
2023-02-22T19:33:56.486Z,100271.27
2023-02-22T19:36:28.788Z,100273.67
2023-02-22T19:39:03.850Z,100275.46
2023-02-22T19:41:35.608Z,100281.02
2023-02-22T19:44:08.084Z,100286.13
2023-02-22T19:47:01.961Z,100286.92
2023-02-22T19:49:40.519Z,100289.91
2023-02-22T19:52:11.710Z,100289.11
2023-02-22T19:54:44.010Z,100284.95
2023-02-22T19:57:15.428Z,100291.67
2023-02-22T19:59:46.959Z,100289.35
2023-02-22T20:02:19.715Z,100290.64
2023-02-22T20:04:53.847Z,100287.58
2023-02-22T20:07:27.449Z,100288.41
2023-02-22T20:10:02.897Z,100287.45
2023-02-22T20:12:34.647Z,100290.36
2023-02-22T20:15:09.542Z,100287.24
2023-02-22T20:17:42.244Z,100289.41
2023-02-22T20:20:16.723Z,100288.73
2023-02-22T20:22:48.082Z,100285.23
2023-02-22T20:25:19.439Z,100286.92
2023-02-22T20:27:50.617Z,100282.20
2023-02-22T20:30:22.186Z,100280.70
2023-02-22T20:32:55.206Z,100281.88
2023-02-22T20:35:32.691Z,100285.05
2023-02-22T20:38:04.853Z,100288.60
2023-02-22T20:40:39.187Z,100292.00
2023-02-22T20:43:15.805Z,100289.21
2023-02-22T20:45:48.342Z,100283.55
2023-02-22T20:48:22.426Z,100284.94
2023-02-22T20:50:55.796Z,100283.56
2023-02-22T20:53:27.034Z,100280.23
2023-02-22T20:56:00.453Z,100283.05
2023-02-22T20:58:38.273Z,100277.31
2023-02-22T21:01:17.932Z,100276.64
2023-02-22T21:03:51.230Z,100277.59
2023-02-22T21:06:23.732Z,100279.16
2023-02-22T21:08:59.347Z,100280.87
2023-02-22T21:11:33.029Z,100281.45
2023-02-22T21:14:08.452Z,100278.83
2023-02-22T21:16:49.190Z,100276.61
2023-02-22T21:19:28.457Z,100275.38
2023-02-22T21:22:01.782Z,100272.02
2023-02-22T21:24:33.555Z,100275.30
2023-02-22T21:27:13.397Z,100278.73
2023-02-22T21:29:45.188Z,100272.54
2023-02-22T21:32:16.927Z,100274.52
2023-02-22T21:34:50.560Z,100275.48
2023-02-22T21:37:23.403Z,100270.55
2023-02-22T21:39:53.494Z,100269.64
2023-02-22T21:42:25.267Z,100268.80
2023-02-22T21:44:57.772Z,100266.09
2023-02-22T21:47:28.358Z,100267.11
2023-02-22T21:49:58.654Z,100260.27
2023-02-22T21:52:28.157Z,100261.06
2023-02-22T21:54:57.526Z,100261.27
2023-02-22T21:57:26.639Z,100256.27
2023-02-22T21:59:55.747Z,100257.92
2023-02-22T22:02:24.739Z,100257.27
2023-02-22T22:04:53.645Z,100253.08
2023-02-22T22:07:23.683Z,100251.81
2023-02-22T22:09:57.038Z,100254.38
2023-02-22T22:12:37.548Z,100247.23
2023-02-22T22:15:09.996Z,100248.65
2023-02-22T22:17:39.277Z,100245.42
2023-02-22T22:20:12.898Z,100244.38
2023-02-22T22:22:43.827Z,100242.73
2023-02-22T22:25:13.916Z,100239.30
2023-02-22T22:27:43.049Z,100240.27
2023-02-22T22:30:13.244Z,100235.62
2023-02-22T22:32:41.924Z,100233.20
2023-02-22T22:35:15.324Z,100230.70
2023-02-22T22:37:44.896Z,100231.31
2023-02-22T22:40:16.274Z,100224.48
2023-02-22T22:42:46.454Z,100222.20
2023-02-22T22:45:18.629Z,100224.33
2023-02-22T22:47:47.565Z,100227.23
2023-02-22T22:50:19.232Z,100225.20
2023-02-22T22:52:49.477Z,100224.75
2023-02-22T22:55:19.566Z,100222.29
2023-02-22T22:57:48.474Z,100223.82
2023-02-22T23:00:30.154Z,100222.47
2023-02-22T23:02:59.474Z,100220.09
2023-02-22T23:05:29.585Z,100221.15
2023-02-22T23:08:05.404Z,100220.52
2023-02-22T23:10:39.640Z,100218.17
2023-02-22T23:13:15.833Z,100218.65
2023-02-22T23:15:47.977Z,100217.08
2023-02-22T23:18:21.245Z,100215.58
2023-02-22T23:20:59.423Z,100216.16
2023-02-22T23:23:28.246Z,100220.11
2023-02-22T23:26:27.513Z,100220.36
2023-02-22T23:28:59.774Z,100214.05
2023-02-22T23:31:32.425Z,100215.10
2023-02-22T23:34:07.057Z,100214.38
2023-02-22T23:36:40.391Z,100213.08
2023-02-22T23:39:09.109Z,100214.40
2023-02-22T23:41:38.187Z,100213.30
2023-02-22T23:44:10.596Z,100212.58
2023-02-22T23:46:41.465Z,100210.95
2023-02-22T23:49:10.507Z,100210.10
2023-02-22T23:51:40.626Z,100206.36
2023-02-22T23:54:12.803Z,100205.79
2023-02-22T23:57:03.211Z,100201.94
2023-02-22T23:59:33.086Z,100202.06
